FW2402 Weather Reports


time (UTC)temp
C
wind
direction
speed
KPH
gust
KPH
rain 1hr
cm
rain 24hr
cm
rain mn
cm
humidity
%
barometer
mb
20200531082516 21 0.0 1.6 0.00 0.00 0.00 93 1016.4
20200531082016 21 0.0 1.6 0.00 0.00 0.00 93 1016.4
20200531081515 21 0.0 0.0 0.00 0.00 0.00 93 1016.4
20200531081015 21 0.0 1.6 0.00 0.00 0.00 93 1016.4
20200531080515 21 0.0 0.0 0.00 0.00 0.00 93 1016.2
20200531080015 21 0.0 1.6 0.00 0.00 0.00 93 1016.3
20200531075515 21 0.0 1.6 0.00 0.00 0.00 93 1016.4
20200531075015 21 0.0 0.0 0.00 0.00 0.00 93 1016.3
20200531074516 21 0.0 1.6 0.00 0.00 0.00 93 1016.2
20200531074015 21 248 1.6 1.6 0.00 0.00 0.00 93 1016.2
20200531073516 21 0.0 1.6 0.00 0.00 0.00 93 1016.1
20200531073016 21 0.0 1.6 0.00 0.00 0.00 93 1016.2
20200531072516 21 0.0 1.6 0.00 0.00 0.00 93 1016.1
20200531072016 21 0.0 1.6 0.00 0.00 0.00 93 1016.1
20200531071516 21 248 1.6 3.2 0.00 0.00 0.00 93 1016.1
20200531071016 21 248 1.6 1.6 0.00 0.00 0.00 92 1016.2
20200531070515 21 0.0 1.6 0.00 0.00 0.00 92 1016.3
20200531070016 21 0.0 1.6 0.00 0.00 0.00 92 1016.4
20200531065515 21 0.0 1.6 0.00 0.00 0.00 92 1016.5
20200531065015 22 0.0 3.2 0.00 0.00 0.00 92 1016.5
20200531064515 21 248 1.6 3.2 0.00 0.00 0.00 92 1016.7
20200531064015 21 248 1.6 3.2 0.00 0.03 0.00 92 1016.8
20200531063516 21 0.0 1.6 0.00 0.03 0.00 91 1016.8
20200531063015 22 0.0 3.2 0.00 0.03 0.00 91 1016.9
20200531062515 22 248 1.6 3.2 0.00 0.03 0.00 91 1017.0
20200531062015 22 248 3.2 4.8 0.00 0.03 0.00 91 1017.1
20200531061515 22 248 3.2 4.8 0.00 0.03 0.00 91 1017.2
20200531061015 22 248 1.6 3.2 0.00 0.03 0.00 91 1017.3
20200531060515 22 248 1.6 3.2 0.00 0.03 0.00 91 1017.3
20200531060015 22 248 1.6 3.2 0.00 0.03 0.00 91 1017.3
20200531055516 22 248 1.6 3.2 0.00 0.03 0.00 90 1017.3
20200531055016 22 0.0 1.6 0.00 0.03 0.00 90 1017.3
20200531054515 22 248 1.6 3.2 0.00 0.03 0.00 90 1017.5
20200531054015 22 248 3.2 4.8 0.00 0.03 0.00 90 1017.6
20200531053516 22 225 1.6 3.2 0.00 0.03 0.00 90 1017.6
20200531053021 22 0.0 3.2 0.00 0.03 0.00 90 1017.8
20200531052518 22 225 1.6 3.2 0.00 0.03 0.00 90 1017.8
20200531052015 22 225 1.6 3.2 0.00 0.03 0.00 90 1017.8
20200531051515 22 0.0 3.2 0.00 0.03 0.00 90 1017.8
20200531051016 22 0.0 3.2 0.00 0.03 0.00 90 1017.8
20200531050515 22 270 3.2 4.8 0.00 0.03 0.00 90 1017.8
20200531050016 22 203 1.6 3.2 0.00 0.03 0.00 90 1017.8
20200531045515 22 180 1.6 3.2 0.00 0.03 0.00 90 1018.1
20200531045016 22 270 1.6 3.2 0.00 0.03 0.00 90 1018.0
20200531044515 22 180 1.6 4.8 0.00 0.03 0.00 90 1018.0
20200531044020 22 158 3.2 6.4 0.00 0.03 0.00 90 1018.2
20200531043515 22 180 1.6 6.4 0.00 0.03 0.00 90 1018.1
20200531043015 22 248 1.6 6.4 0.00 0.03 0.00 90 1018.1
20200531042515 22 203 1.6 4.8 0.00 0.03 0.00 90 1018.0
20200531042015 22 248 1.6 6.4 0.00 0.03 0.00 90 1018.0
20200531041515 23 270 1.6 3.2 0.00 0.03 0.00 89 1017.9
20200531041016 23 0.0 3.2 0.00 0.03 0.00 89 1017.8
20200531040515 23 248 1.6 4.8 0.00 0.03 0.00 88 1017.7
20200531040015 23 248 3.2 4.8 0.00 0.03 0.03 88 1017.7
20200531035516 23 248 1.6 3.2 0.00 0.03 0.03 88 1017.8
20200531035021 23 0.0 1.6 0.00 0.03 0.03 87 1017.9
20200531034515 23 0.0 3.2 0.00 0.03 0.03 87 1017.9
20200531034015 23 270 1.6 4.8 0.00 0.03 0.03 87 1017.9
20200531033516 23 225 1.6 6.4 0.00 0.03 0.03 86 1018.1
20200531033015 23 225 1.6 4.8 0.00 0.03 0.03 86 1018.0
20200531032515 23 225 1.6 8.0 0.00 0.03 0.03 86 1018.0
20200531032015 23 203 1.6 6.4 0.00 0.03 0.03 86 1018.1
20200531031516 23 203 1.6 4.8 0.00 0.03 0.03 85 1018.2
20200531031016 23 203 3.2 9.7 0.00 0.03 0.03 85 1018.1
20200531030516 23 158 1.6 3.2 0.00 0.03 0.03 85 1018.2
20200531030015 23 158 3.2 8.0 0.00 0.03 0.03 85 1018.1
20200531025515 24 135 4.8 14.5 0.00 0.03 0.03 84 1017.9
20200531025015 24 158 4.8 11.3 0.00 0.03 0.03 84 1017.8
20200531024516 24 158 6.4 12.9 0.00 0.03 0.03 83 1017.8
20200531024015 24 158 8.0 17.7 0.00 0.03 0.03 84 1017.8
20200531023515 24 135 6.4 14.5 0.00 0.03 0.03 85 1017.7
20200531023015 24 135 8.0 14.5 0.00 0.03 0.03 85 1017.8
20200531022516 25 113 9.7 12.9 0.00 0.03 0.03 85 1017.8
20200531022015 25 113 4.8 9.7 0.00 0.03 0.03 85 1017.8
20200531021516 25 135 6.4 11.3 0.00 0.03 0.03 85 1017.7
20200531021015 25 135 4.8 11.3 0.00 0.03 0.03 85 1017.7
20200531020515 25 158 4.8 8.0 0.00 0.03 0.03 84 1017.7
20200531020016 25 158 4.8 12.9 0.00 0.03 0.03 84 1017.7
20200531015515 25 135 3.2 9.7 0.00 0.03 0.03 84 1017.8
20200531015015 25 158 4.8 9.7 0.00 0.03 0.03 83 1017.6
20200531014515 25 113 4.8 11.3 0.00 0.03 0.03 83 1017.6
20200531014015 25 113 4.8 12.9 0.00 0.03 0.03 83 1017.5
20200531013516 25 113 8.0 12.9 0.00 0.03 0.03 82 1017.5
20200531013015 25 113 12.9 24.1 0.00 0.03 0.03 81 1017.5
20200531012515 26 113 11.3 17.7 0.00 0.03 0.03 81 1017.5
20200531012015 26 113 14.5 25.7 0.00 0.03 0.03 81 1017.4
20200531011515 26 113 12.9 20.9 0.00 0.03 0.03 79 1017.3
20200531011015 26 113 11.3 19.3 0.00 0.03 0.03 77 1017.3
20200531010515 27 113 11.3 16.1 0.00 0.03 0.03 77 1017.3
20200531010015 27 90 11.3 19.3 0.00 0.03 0.03 77 1017.2
20200531005515 27 90 8.0 16.1 0.00 0.03 0.03 77 1017.1
20200531005015 27 90 4.8 9.7 0.00 0.03 0.03 78 1017.0
20200531004515 27 90 4.8 6.4 0.00 0.03 0.03 77 1016.9
20200531004015 27 68 4.8 6.4 0.00 0.03 0.03 76 1016.7
20200531003515 27 68 4.8 8.0 0.00 0.03 0.03 76 1016.5
20200531003015 27 45 3.2 4.8 0.00 0.03 0.03 75 1016.5
20200531002515 27 68 3.2 6.4 0.00 0.03 0.03 75 1016.5
20200531002015 28 0.0 3.2 0.00 0.05 0.03 74 1016.4
20200531001515 28 315 1.6 4.8 0.00 0.05 0.03 73 1016.1
20200531001015 28 315 1.6 4.8 0.00 0.05 0.03 72 1015.9
20200531000515 28 315 1.6 4.8 0.00 0.05 0.03 71 1015.8
20200531000015 28 315 1.6 4.8 0.00 0.08 0.03 71 1015.8
20200530235515 28 0.0 1.6 0.00 0.08 0.03 71 1015.6
20200530235015 29 315 3.2 6.4 0.00 0.10 0.03 69 1015.6
20200530234515 29 315 1.6 4.8 0.00 0.13 0.03 69 1015.5
20200530234015 29 0 1.6 4.8 0.00 0.15 0.03 68 1015.5
20200530233515 29 293 4.8 12.9 0.00 0.18 0.03 68 1015.4
20200530233015 29 315 1.6 8.0 0.00 0.20 0.03 69 1015.4
20200530232515 29 293 6.4 14.5 0.00 0.25 0.03 68 1015.4
20200530232015 29 315 9.7 16.1 0.00 0.28 0.03 67 1015.4
20200530231515 30 315 11.3 20.9 0.00 0.30 0.03 67 1015.2
20200530231015 30 293 11.3 20.9 0.00 0.33 0.03 67 1015.2
20200530230515 30 293 9.7 19.3 0.00 0.33 0.03 65 1015.1
20200530230015 30 315 4.8 12.9 0.00 0.36 0.03 65 1015.2
20200530225515 30 293 8.0 16.1 0.00 0.36 0.03 65 1015.1
20200530225015 30 293 11.3 20.9 0.00 0.36 0.03 64 1015.0
20200530224515 30 293 8.0 16.1 0.00 0.36 0.03 65 1014.9
20200530224017 30 293 11.3 14.5 0.00 0.36 0.03 64 1015.1
20200530223517 31 293 11.3 20.9 0.00 0.36 0.03 63 1015.0
20200530223017 31 293 9.7 22.5 0.00 0.38 0.03 63 1014.8
20200530222517 31 293 14.5 22.5 0.00 0.38 0.03 62 1014.7
20200530222017 31 293 12.9 20.9 0.00 0.38 0.03 63 1014.7
20200530221517 31 293 8.0 19.3 0.00 0.41 0.03 65 1014.8
20200530221017 31 293 6.4 14.5 0.00 0.56 0.03 64 1014.8
20200530220517 31 293 4.8 8.0 0.00 0.84 0.03 65 1014.8
20200530220017 31 293 8.0 14.5 0.00 1.09 0.03 64 1014.7
20200530215517 31 315 8.0 16.1 0.00 1.12 0.03 63 1014.7
20200530215017 31 293 8.0 12.9 0.00 1.12 0.03 64 1014.7
20200530214517 31 293 6.4 12.9 0.00 1.12 0.03 63 1014.8
20200530214017 31 315 3.2 11.3 0.00 1.12 0.03 65 1014.9
20200530213517 31 315 3.2 6.4 0.00 1.12 0.03 65 1015.0
20200530213017 31 293 6.4 19.3 0.00 1.12 0.03 66 1015.1
20200530212517 31 315 6.4 16.1 0.00 1.12 0.03 63 1015.2
20200530212017 31 293 3.2 11.3 0.00 1.12 0.03 65 1015.2
20200530211522 31 315 3.2 8.0 0.00 1.12 0.03 66 1015.3
20200530211017 31 293 4.8 9.7 0.00 1.12 0.03 65 1015.3
20200530210522 31 315 3.2 9.7 0.00 1.12 0.03 68 1015.4
20200530210017 31 315 3.2 6.4 0.00 1.12 0.03 66 1015.4
20200530205520 31 315 3.2 6.4 0.00 1.12 0.03 65 1015.4
20200530205017 31 315 1.6 4.8 0.00 1.12 0.03 67 1015.5
20200530204517 31 293 3.2 6.4 0.00 1.12 0.03 67 1015.6
20200530204017 31 293 3.2 6.4 0.00 1.12 0.03 67 1015.6
20200530203517 31 315 1.6 6.4 0.00 1.12 0.03 65 1015.7
20200530203017 31 315 3.2 6.4 0.00 1.12 0.03 64 1015.6
20200530202516 32 293 6.4 12.9 0.00 1.12 0.03 61 1015.7
20200530202017 32 293 3.2 14.5 0.00 1.12 0.03 65 1015.7
20200530201516 31 293 6.4 14.5 0.00 1.12 0.03 64 1015.8
20200530201017 32 68 3.2 8.0 0.00 1.12 0.03 64 1015.8
20200530200516 32 270 1.6 6.4 0.00 1.12 0.03 65 1015.8
20200530200018 32 270 4.8 12.9 0.00 1.12 0.03 61 1015.9
20200530195517 32 248 3.2 11.3 0.00 1.12 0.03 63 1015.9
20200530195016 32 270 4.8 11.3 0.00 1.12 0.03 63 1015.9
20200530194516 32 315 3.2 8.0 0.00 1.12 0.03 63 1015.9
20200530194017 32 68 3.2 6.4 0.00 1.12 0.03 62 1016.0
20200530193516 31 315 1.6 4.8 0.00 1.12 0.03 70 1016.1
20200530193016 31 315 3.2 6.4 0.00 1.12 0.03 65 1016.0
20200530192517 32 90 4.8 9.7 0.00 1.12 0.03 62 1016.1
20200530192018 32 68 3.2 6.4 0.00 1.12 0.03 63 1016.0
20200530191516 32 180 1.6 4.8 0.00 1.12 0.03 65 1016.2
20200530191017 32 270 1.6 6.4 0.00 1.12 0.03 67 1016.2
20200530190516 31 135 1.6 3.2 0.00 1.12 0.03 72 1016.3
20200530190016 31 68 1.6 3.2 0.00 1.12 0.03 67 1016.3
20200530185516 31 68 3.2 6.4 0.00 1.12 0.03 64 1016.3
20200530185016 31 315 3.2 6.4 0.00 1.12 0.03 64 1016.5
20200530184517 32 338 1.6 6.4 0.00 1.12 0.03 67 1016.5
20200530184016 31 293 3.2 6.4 0.00 1.12 0.03 71 1016.6
20200530183522 31 293 4.8 11.3 0.00 1.12 0.03 62 1016.6
20200530183016 31 315 4.8 11.3 0.00 1.12 0.03 63 1016.7
20200530182516 31 113 3.2 8.0 0.00 1.12 0.03 66 1016.8
20200530182017 31 293 4.8 9.7 0.00 1.12 0.03 65 1016.8
20200530181516 31 293 4.8 9.7 0.00 1.12 0.03 65 1017.0
20200530181016 31 270 6.4 12.9 0.00 1.12 0.03 70 1017.0
20200530180517 30 270 3.2 9.7 0.00 1.12 0.03 71 1017.1
20200530180016 30 293 4.8 11.3 0.00 1.12 0.03 72 1017.1
20200530175516 30 293 4.8 8.0 0.00 1.12 0.03 70 1017.2
20200530175017 30 293 4.8 12.9 0.00 1.12 0.03 68 1017.3
20200530174516 31 293 1.6 4.8 0.00 1.12 0.03 69 1017.3
20200530174016 31 45 1.6 4.8 0.00 1.12 0.03 64 1017.3
20200530173517 31 68 1.6 4.8 0.00 1.12 0.03 69 1017.4
20200530173017 30 293 3.2 8.0 0.00 1.12 0.03 71 1017.4
20200530172517 31 293 4.8 11.3 0.00 1.12 0.03 67 1017.4
20200530172016 31 293 4.8 11.3 0.00 1.12 0.03 68 1017.5
20200530171516 30 293 4.8 9.7 0.00 1.12 0.03 69 1017.6
20200530171017 31 270 6.4 14.5 0.00 1.12 0.03 67 1017.6
20200530170516 31 203 1.6 6.4 0.00 1.12 0.03 71 1017.7
20200530170017 30 135 3.2 4.8 0.00 1.12 0.03 70 1017.8
20200530165517 30 203 3.2 6.4 0.00 1.12 0.03 70 1017.8
20200530165016 30 293 4.8 9.7 0.00 1.12 0.03 70 1017.8
20200530164516 30 293 3.2 6.4 0.00 1.12 0.03 68 1017.9
20200530164017 30 248 3.2 11.3 0.00 1.12 0.03 69 1017.9
20200530163516 30 338 1.6 3.2 0.00 1.12 0.03 74 1017.9
20200530163016 30 135 1.6 3.2 0.00 1.12 0.03 74 1018.0
20200530162517 30 270 3.2 6.4 0.00 1.12 0.03 74 1018.0
20200530162021 29 248 3.2 11.3 0.00 1.12 0.03 72 1018.1
20200530161516 29 270 8.0 14.5 0.00 1.12 0.03 73 1018.1
20200530161017 29 315 3.2 9.7 0.00 1.12 0.03 75 1018.1
20200530160517 29 270 4.8 12.9 0.00 1.12 0.03 74 1018.1
20200530160017 28 270 4.8 9.7 0.00 1.12 0.03 72 1018.0
20200530155516 28 270 4.8 12.9 0.00 1.12 0.03 74 1018.2
20200530155016 29 203 3.2 4.8 0.00 1.12 0.03 76 1018.2
20200530154516 29 270 4.8 11.3 0.00 1.12 0.03 77 1018.1
20200530154016 28 293 4.8 11.3 0.00 1.12 0.03 78 1018.2
20200530153522 28 293 8.0 14.5 0.00 1.12 0.03 79 1018.1
20200530153016 28 248 3.2 4.8 0.00 1.12 0.03 78 1018.2
20200530152517 28 270 3.2 11.3 0.00 1.12 0.03 80 1018.2
20200530152016 28 293 8.0 12.9 0.00 1.12 0.03 79 1018.3
20200530151516 28 203 3.2 9.7 0.00 1.12 0.03 80 1018.2
20200530151016 28 270 3.2 9.7 0.00 1.12 0.03 82 1018.2
20200530150516 28 203 3.2 9.7 0.00 1.12 0.03 80 1018.2
20200530150016 27 270 3.2 9.7 0.00 1.12 0.03 82 1018.1
20200530145516 27 270 3.2 11.3 0.00 1.12 0.03 80 1018.1
20200530145017 27 270 4.8 11.3 0.00 1.12 0.03 82 1018.2
20200530144516 27 270 6.4 11.3 0.00 1.12 0.03 84 1018.2
20200530144016 27 293 3.2 6.4 0.00 1.12 0.03 85 1018.1
20200530143516 27 293 8.0 12.9 0.00 1.12 0.03 81 1018.1
20200530143017 27 203 3.2 6.4 0.00 1.12 0.03 84 1018.2
20200530142516 27 270 6.4 11.3 0.00 1.12 0.03 85 1018.2
20200530142016 27 270 8.0 12.9 0.00 1.12 0.03 82 1018.2
20200530141516 27 180 4.8 11.3 0.00 1.12 0.03 84 1018.2
20200530141016 27 225 3.2 8.0 0.00 1.12 0.03 85 1018.3
20200530140516 27 293 6.4 11.3 0.00 1.12 0.03 86 1018.2
20200530140016 27 180 3.2 9.7 0.00 1.12 0.03 84 1018.1
20200530135516 26 180 3.2 6.4 0.00 1.12 0.03 85 1018.2
20200530135016 26 180 3.2 6.4 0.00 1.12 0.03 87 1018.2
20200530134516 26 203 3.2 9.7 0.00 1.12 0.03 88 1018.2
20200530134016 26 203 1.6 4.8 0.00 1.12 0.03 89 1018.2
20200530133516 26 180 1.6 6.4 0.00 1.12 0.03 89 1018.3
20200530133016 26 225 1.6 4.8 0.00 1.12 0.03 89 1018.3
20200530132516 25 180 3.2 6.4 0.00 1.12 0.03 90 1018.4
20200530132017 25 180 3.2 8.0 0.00 1.12 0.03 91 1018.4
20200530131516 25 180 3.2 8.0 0.00 1.12 0.03 92 1018.5
20200530131016 24 180 3.2 8.0 0.00 1.12 0.03 94 1018.6
20200530130516 24 225 1.6 3.2 0.00 1.12 0.03 96 1018.5
20200530130016 24 203 1.6 4.8 0.00 1.12 0.03 96 1018.6
20200530125516 23 203 1.6 3.2 0.00 1.12 0.03 97 1018.5
20200530125017 23 203 1.6 3.2 0.00 1.12 0.03 97 1018.5
20200530124516 23 203 1.6 4.8 0.00 1.12 0.03 97 1018.4
20200530124016 23 203 3.2 4.8 0.00 1.12 0.03 98 1018.5
20200530123516 23 180 1.6 4.8 0.00 1.12 0.03 98 1018.5
20200530123016 23 180 1.6 4.8 0.00 1.12 0.03 98 1018.4
20200530122517 23 180 1.6 4.8 0.00 1.12 0.03 98 1018.3
20200530122016 23 180 1.6 4.8 0.00 1.12 0.03 98 1018.3
20200530121516 22 225 1.6 3.2 0.00 1.12 0.03 98 1018.3
20200530121016 22 180 1.6 4.8 0.00 1.12 0.03 98 1018.4
20200530120516 22 180 1.6 4.8 0.00 1.12 0.03 98 1018.3
20200530120016 22 0.0 3.2 0.00 1.12 0.03 98 1018.2
20200530115516 22 180 1.6 4.8 0.00 1.12 0.03 98 1018.1
20200530115016 22 0.0 3.2 0.00 1.12 0.03 98 1018.1
20200530114516 22 135 1.6 3.2 0.00 1.14 0.03 99 1018.1
20200530114016 21 135 1.6 3.2 0.00 1.14 0.03 98 1017.9
20200530113516 21 135 1.6 1.6 0.00 1.14 0.03 98 1017.9
20200530113016 21 0.0 1.6 0.00 1.14 0.03 98 1018.0
20200530112516 20 0.0 0.0 0.00 1.14 0.03 98 1018.0
20200530112016 20 135 1.6 3.2 0.00 1.14 0.03 98 1018.0
20200530111516 20 0.0 1.6 0.00 1.14 0.03 98 1017.9
20200530111016 20 135 1.6 1.6 0.00 1.14 0.03 98 1017.7
20200530110521 20 135 1.6 1.6 0.00 1.14 0.03 98 1017.7
20200530110016 20 0.0 0.0 0.00 1.14 0.03 97 1017.8
20200530105516 20 0.0 0.0 0.00 1.14 0.03 98 1017.7
20200530105016 20 0.0 0.0 0.00 1.14 0.03 98 1017.6
20200530104516 20 0.0 0.0 0.00 1.14 0.03 98 1017.7
20200530104015 20 0.0 0.0 0.00 1.14 0.03 98 1017.8
20200530103515 20 0.0 1.6 0.00 1.14 0.03 98 1017.7
20200530103016 20 135 1.6 1.6 0.00 1.14 0.03 98 1017.6
20200530102516 20 0.0 1.6 0.00 1.14 0.03 98 1017.5
20200530102016 20 0.0 1.6 0.00 1.14 0.03 98 1017.4
20200530101515 20 135 1.6 1.6 0.00 1.14 0.03 98 1017.5
20200530101016 20 0.0 1.6 0.00 1.14 0.03 98 1017.4
20200530100521 20 0.0 0.0 0.00 1.14 0.03 98 1017.3
20200530100016 20 0.0 1.6 0.00 1.14 0.03 98 1017.1
20200530095515 20 0.0 0.0 0.00 1.14 0.03 97 1017.3
20200530095016 20 0.0 0.0 0.00 1.14 0.03 98 1017.5
20200530094515 20 0.0 0.0 0.00 1.14 0.03 98 1017.4
20200530094015 20 0.0 0.0 0.00 1.14 0.03 98 1017.4
20200530093515 20 0.0 1.6 0.00 1.14 0.03 98 1017.4
20200530093016 21 0.0 1.6 0.00 1.14 0.03 98 1017.4
20200530092515 21 0.0 0.0 0.00 1.14 0.03 98 1017.3
20200530092016 20 0.0 1.6 0.00 1.14 0.03 98 1017.3
20200530091515 20 0.0 0.0 0.00 1.14 0.03 97 1017.3
20200530091016 20 0.0 0.0 0.00 1.14 0.03 97 1017.3
20200530090516 20 0.0 0.0 0.00 1.14 0.03 97 1017.4
20200530090016 20 0.0 0.0 0.00 1.14 0.03 98 1017.4
20200530085516 20 0.0 0.0 0.00 1.14 0.03 97 1017.4
20200530085016 20 0.0 0.0 0.00 1.14 0.03 97 1017.5
20200530084515 20 0.0 0.0 0.00 1.14 0.03 97 1017.5
20200530084016 20 0.0 0.0 0.00 1.14 0.03 97 1017.5
20200530083516 20 0.0 0.0 0.00 1.14 0.03 97 1017.5
20200530083016 21 0.0 0.0 0.00 1.14 0.03 97 1017.6